EGHH Airport Information

Runway Information
Runway 08 Length 7451 ft width 151 ft
Elevation 38 ft Threshold 1383 ft Heading 75
Runway 26 Length 7451 ft Width 151 ft
Elevation 31 ft Threshold 0 ft Heading 255
Airport Frequencies
Type APP Name APP Frequency 119.475 MHZ
Type ATIS Name ATIS Frequency 121.95 MHZ
Type GND Name GND Frequency 121.7 MHZ
Type TWR Name TWR Frequency 125.6 MHZ
Airport Navaids
Airport Weather Information & NOTAM
ADDS - METARS form results

(0454 UTC 17 September 2021)
Data provider http://aviationweather.gov/metar/data/
 
Forecast for: AMD
Text: TAF AMD EGHH 162201Z 1622/1623 18004KT 9999 SCT040
Forecast period: 2200 to 2300 UTC 16 September 2021
Forecast type: FROM: standard forecast or significant change
Winds: from the S (180 degrees) at 5 MPH (4 knots; 2.1 m/s)
Visibility: 6 or more miles (10+ km)
Ceiling: at least 12,000 feet AGL
Clouds: scattered clouds at 4000 feet AGL
Weather: no significant weather forecast for this period
Text: TEMPO 1622/1623 BKN008
Forecast period: 2200 to 2300 UTC 16 September 2021
Forecast type: TEMPORARY: The following changes expected for less than half the time period
Visibility: missing
Ceiling: 800 feet AGL
Clouds: broken clouds at 800 feet AGL
Weather: no significant weather forecast for this period